createdAt,value
2018-11-13T00:00:52.237Z,102581.31
2018-11-13T00:03:21.538Z,102586.13
2018-11-13T00:05:52.853Z,102579.03
2018-11-13T00:08:23.595Z,102581.41
2018-11-13T00:10:53.182Z,102577.20
2018-11-13T00:13:23.080Z,102582.14
2018-11-13T00:15:54.307Z,102578.10
2018-11-13T00:18:23.576Z,102586.67
2018-11-13T00:20:52.871Z,102580.61
2018-11-13T00:23:23.837Z,102577.05
2018-11-13T00:25:54.175Z,102573.34
2018-11-13T00:28:24.430Z,102576.13
2018-11-13T00:30:53.945Z,102572.66
2018-11-13T00:33:26.346Z,102569.43
2018-11-13T00:35:56.699Z,102565.13
2018-11-13T00:38:27.052Z,102562.19
2018-11-13T00:40:57.702Z,102564.74
2018-11-13T00:43:28.893Z,102572.20
2018-11-13T00:45:58.181Z,102561.91
2018-11-13T00:48:28.707Z,102579.72
2018-11-13T00:50:58.344Z,102571.33
2018-11-13T00:53:27.645Z,102571.17
2018-11-13T00:55:57.549Z,102566.09
2018-11-13T00:58:26.938Z,102557.11
2018-11-13T01:00:57.453Z,102563.83
2018-11-13T01:03:27.604Z,102553.25
2018-11-13T01:05:57.428Z,102566.59
2018-11-13T01:08:27.743Z,102565.81
2018-11-13T01:10:57.167Z,102557.75
2018-11-13T01:13:26.704Z,102562.52
2018-11-13T01:15:56.004Z,102563.48
2018-11-13T01:18:27.474Z,102563.89
2018-11-13T01:20:57.391Z,102562.95
2018-11-13T01:23:27.751Z,102563.94
2018-11-13T01:25:57.255Z,102561.35
2018-11-13T01:28:27.808Z,102563.42
2018-11-13T01:30:58.029Z,102561.95
2018-11-13T01:33:28.626Z,102553.38
2018-11-13T01:35:58.739Z,102576.23
2018-11-13T01:38:29.748Z,102574.20
2018-11-13T01:40:59.559Z,102569.92
2018-11-13T01:43:29.571Z,102566.99
2018-11-13T01:45:59.083Z,102577.19
2018-11-13T01:48:28.911Z,102578.98
2018-11-13T01:51:02.479Z,102577.81
2018-11-13T01:53:34.210Z,102575.98
2018-11-13T01:56:04.638Z,102578.30
2018-11-13T01:58:34.571Z,102586.84
2018-11-13T02:01:04.150Z,102580.81
2018-11-13T02:03:35.693Z,102570.49
2018-11-13T02:06:05.241Z,102589.53
2018-11-13T02:08:35.713Z,102592.02
2018-11-13T02:11:05.329Z,102590.09
2018-11-13T02:13:35.458Z,102598.86
2018-11-13T02:16:05.872Z,102599.66
2018-11-13T02:18:37.149Z,102607.52
2018-11-13T02:21:08.952Z,102595.48
2018-11-13T02:23:38.489Z,102594.05
2018-11-13T02:26:08.813Z,102599.66
2018-11-13T02:28:38.713Z,102589.57
2018-11-13T02:31:07.934Z,102599.54
2018-11-13T02:33:38.155Z,102601.81
2018-11-13T02:36:08.667Z,102600.44
2018-11-13T02:38:39.813Z,102601.58
2018-11-13T02:41:14.193Z,102608.25
2018-11-13T02:43:48.154Z,102603.78
2018-11-13T02:46:19.158Z,102600.28
2018-11-13T02:48:52.675Z,102613.34
2018-11-13T02:51:22.215Z,102602.44
2018-11-13T02:53:51.475Z,102605.20
2018-11-13T02:56:22.914Z,102605.81
2018-11-13T02:58:54.058Z,102607.81
2018-11-13T03:01:23.515Z,102604.19
2018-11-13T03:03:54.112Z,102615.45
2018-11-13T03:06:25.127Z,102604.35
2018-11-13T03:08:55.016Z,102611.55
2018-11-13T03:11:25.902Z,102603.29
2018-11-13T03:13:59.906Z,102614.27
2018-11-13T03:16:30.811Z,102616.47
2018-11-13T03:19:00.170Z,102611.27
2018-11-13T03:21:29.407Z,102602.08
2018-11-13T03:23:58.972Z,102610.69
2018-11-13T03:26:28.414Z,102607.28
2018-11-13T03:28:58.787Z,102607.23
2018-11-13T03:31:28.390Z,102610.37
2018-11-13T03:33:59.475Z,102609.96
2018-11-13T03:36:30.523Z,102609.96
2018-11-13T03:39:00.891Z,102610.00
2018-11-13T03:41:31.343Z,102597.80
2018-11-13T03:44:02.396Z,102607.92
2018-11-13T03:46:31.748Z,102608.25
2018-11-13T03:49:02.898Z,102616.35
2018-11-13T03:51:34.009Z,102613.58
2018-11-13T03:54:03.888Z,102611.55
2018-11-13T03:56:33.365Z,102619.52
2018-11-13T03:59:04.648Z,102612.44
2018-11-13T04:01:33.982Z,102605.48
2018-11-13T04:04:08.823Z,102602.08
2018-11-13T04:06:39.336Z,102604.59
2018-11-13T04:09:11.602Z,102611.88
2018-11-13T04:11:42.326Z,102614.84
2018-11-13T04:14:12.862Z,102621.95
2018-11-13T04:16:42.369Z,102619.03
2018-11-13T04:19:12.952Z,102615.94
2018-11-13T04:21:43.369Z,102611.14
2018-11-13T04:24:14.075Z,102609.22
2018-11-13T04:26:45.691Z,102610.12
2018-11-13T04:29:15.824Z,102610.24
2018-11-13T04:31:47.261Z,102611.42
2018-11-13T04:34:17.278Z,102622.08
2018-11-13T04:36:47.844Z,102616.14
2018-11-13T04:39:18.353Z,102613.17
2018-11-13T04:41:48.985Z,102613.13
2018-11-13T04:44:18.326Z,102608.94
2018-11-13T04:46:49.919Z,102613.70
2018-11-13T04:49:21.360Z,102620.70
2018-11-13T04:51:51.673Z,102621.38
2018-11-13T04:54:21.744Z,102620.35
2018-11-13T04:56:54.345Z,102618.65
2018-11-13T04:59:24.106Z,102618.77
2018-11-13T05:01:55.641Z,102625.11
2018-11-13T05:04:26.422Z,102628.16
2018-11-13T05:06:57.750Z,102617.80
2018-11-13T05:09:27.928Z,102622.31
2018-11-13T05:11:57.580Z,102620.53
2018-11-13T05:14:28.021Z,102629.69
2018-11-13T05:16:57.464Z,102632.86
2018-11-13T05:19:27.570Z,102633.15
2018-11-13T05:22:01.956Z,102625.34
2018-11-13T05:24:31.889Z,102633.59
2018-11-13T05:27:02.363Z,102628.47
2018-11-13T05:29:33.472Z,102638.27
2018-11-13T05:32:03.006Z,102619.03
2018-11-13T05:34:37.960Z,102640.95
2018-11-13T05:37:08.318Z,102651.05
2018-11-13T05:39:37.841Z,102625.53
2018-11-13T05:42:08.701Z,102643.64
2018-11-13T05:44:39.705Z,102644.49
2018-11-13T05:47:10.148Z,102636.68
2018-11-13T05:49:39.480Z,102640.06
2018-11-13T05:52:09.276Z,102641.89
2018-11-13T05:54:39.656Z,102659.55
2018-11-13T05:57:10.385Z,102662.14
2018-11-13T05:59:40.809Z,102663.45
2018-11-13T06:02:12.417Z,102655.07
2018-11-13T06:04:42.868Z,102669.44
2018-11-13T06:07:15.074Z,102665.16
2018-11-13T06:09:45.242Z,102669.80
2018-11-13T06:12:16.401Z,102672.84
2018-11-13T06:14:46.294Z,102677.20
2018-11-13T06:17:19.581Z,102685.73
2018-11-13T06:19:49.699Z,102678.78
2018-11-13T06:22:19.176Z,102679.35
2018-11-13T06:24:49.403Z,102683.63
2018-11-13T06:27:26.163Z,102675.45
2018-11-13T06:29:56.063Z,102673.13
2018-11-13T06:32:25.509Z,102687.16
2018-11-13T06:34:56.690Z,102672.11
2018-11-13T06:37:28.800Z,102673.91
2018-11-13T06:40:00.481Z,102673.05
2018-11-13T06:42:29.906Z,102679.80
2018-11-13T06:44:59.341Z,102680.38
2018-11-13T06:47:29.979Z,102682.17
2018-11-13T06:50:00.296Z,102679.69
2018-11-13T06:52:30.227Z,102687.81
2018-11-13T06:55:05.127Z,102688.51
2018-11-13T06:57:35.768Z,102693.22
2018-11-13T07:06:53.136Z,102686.20
2018-11-13T07:09:22.162Z,102687.93
2018-11-13T07:11:51.231Z,102689.07
2018-11-13T07:14:20.259Z,102683.99
2018-11-13T07:16:49.147Z,102680.13
2018-11-13T07:19:18.122Z,102690.17
2018-11-13T07:21:47.220Z,102686.55
2018-11-13T07:24:18.870Z,102693.28
2018-11-13T07:26:47.862Z,102688.06
2018-11-13T07:29:16.898Z,102691.24
2018-11-13T07:31:45.846Z,102694.45
2018-11-13T07:34:14.921Z,102695.88
2018-11-13T07:36:43.888Z,102689.98
2018-11-13T07:39:12.791Z,102694.13
2018-11-13T07:41:43.156Z,102701.16
2018-11-13T07:44:12.219Z,102692.30
2018-11-13T07:46:41.237Z,102678.71
2018-11-13T07:49:10.306Z,102690.27
2018-11-13T07:51:39.319Z,102693.68
2018-11-13T07:54:08.351Z,102681.84
2018-11-13T07:56:38.851Z,102680.94
2018-11-13T07:59:07.991Z,102688.19
2018-11-13T08:01:36.996Z,102688.59
2018-11-13T08:04:06.388Z,102693.27
2018-11-13T08:06:35.393Z,102699.50
2018-11-13T08:09:04.844Z,102701.25
2018-11-13T08:11:33.924Z,102699.34
2018-11-13T08:14:02.864Z,102687.29
2018-11-13T08:16:31.963Z,102703.36
2018-11-13T08:19:00.940Z,102697.80
2018-11-13T08:21:29.956Z,102704.91
2018-11-13T08:23:58.995Z,102711.02
2018-11-13T08:26:27.985Z,102705.36
2018-11-13T08:28:57.071Z,102705.97
2018-11-13T08:31:26.104Z,102695.19
2018-11-13T08:33:55.169Z,102707.27
2018-11-13T08:36:24.260Z,102702.34
2018-11-13T08:38:53.278Z,102706.09
2018-11-13T08:41:22.272Z,102694.86
2018-11-13T08:43:51.255Z,102695.50
2018-11-13T08:46:20.270Z,102710.40
2018-11-13T08:48:49.308Z,102701.20
2018-11-13T08:51:18.186Z,102697.70
2018-11-13T08:53:47.183Z,102691.20
2018-11-13T08:56:16.216Z,102698.55
2018-11-13T08:58:45.203Z,102684.89
2018-11-13T09:01:14.204Z,102694.30
2018-11-13T09:03:43.107Z,102687.23
2018-11-13T09:06:12.021Z,102682.11
2018-11-13T09:08:42.332Z,102684.28
2018-11-13T09:11:11.424Z,102677.89
2018-11-13T09:13:40.457Z,102691.03
2018-11-13T09:16:09.430Z,102685.75
2018-11-13T09:18:38.429Z,102683.38
2018-11-13T09:21:07.483Z,102686.03
2018-11-13T09:23:36.477Z,102682.12
2018-11-13T09:26:05.365Z,102661.08
2018-11-13T09:28:34.298Z,102686.48
2018-11-13T09:31:04.930Z,102689.08
2018-11-13T09:33:33.816Z,102694.02
2018-11-13T09:36:02.740Z,102688.35
2018-11-13T09:38:31.827Z,102677.08
2018-11-13T09:41:00.878Z,102673.94
2018-11-13T09:43:31.281Z,102681.42
2018-11-13T09:46:00.382Z,102686.64
2018-11-13T09:48:29.437Z,102685.17
2018-11-13T09:50:58.546Z,102688.47
2018-11-13T09:53:27.553Z,102679.56
2018-11-13T09:55:56.434Z,102683.47
2018-11-13T09:58:25.371Z,102671.09
2018-11-13T10:00:54.612Z,102675.45
2018-11-13T10:03:24.094Z,102678.26
2018-11-13T10:05:52.547Z,102676.96
2018-11-13T10:08:21.632Z,102674.88
2018-11-13T10:10:50.635Z,102671.38
2018-11-13T10:13:19.653Z,102668.89
2018-11-13T10:15:48.600Z,102670.13
2018-11-13T10:18:17.671Z,102663.38
2018-11-13T10:20:46.511Z,102670.13
2018-11-13T10:23:15.349Z,102663.89
2018-11-13T10:25:44.367Z,102669.10
2018-11-13T10:28:13.391Z,102665.07
2018-11-13T10:30:42.347Z,102677.48
2018-11-13T10:33:11.370Z,102667.39
2018-11-13T10:35:40.401Z,102677.77
2018-11-13T10:38:09.291Z,102675.61
2018-11-13T10:40:38.353Z,102678.83
2018-11-13T10:43:07.415Z,102670.85
2018-11-13T10:45:36.334Z,102670.52
2018-11-13T10:48:05.307Z,102669.14
2018-11-13T10:50:34.260Z,102670.57
2018-11-13T10:53:03.273Z,102668.52
2018-11-13T10:55:32.467Z,102668.86
2018-11-13T10:58:01.416Z,102676.94
2018-11-13T11:02:43.151Z,102667.95
2018-11-13T11:05:12.074Z,102658.69
2018-11-13T11:07:41.039Z,102665.14
2018-11-13T11:10:10.060Z,102666.20
2018-11-13T11:12:40.382Z,102659.98
2018-11-13T11:15:10.141Z,102659.28
2018-11-13T11:17:39.071Z,102655.98
2018-11-13T11:20:10.131Z,102665.90
2018-11-13T11:22:39.091Z,102668.61
2018-11-13T11:25:09.701Z,102657.62
2018-11-13T11:27:38.743Z,102651.05
2018-11-13T11:30:11.022Z,102667.28
2018-11-13T11:32:40.110Z,102662.30
2018-11-13T11:35:09.231Z,102655.67
2018-11-13T11:37:39.015Z,102648.34
2018-11-13T11:40:08.160Z,102652.74
2018-11-13T11:42:37.800Z,102650.71
2018-11-13T11:45:08.845Z,102641.72
2018-11-13T11:47:37.960Z,102649.20
2018-11-13T11:50:07.888Z,102651.34
2018-11-13T11:52:36.879Z,102645.30
2018-11-13T11:55:05.883Z,102641.61
2018-11-13T11:57:34.817Z,102637.41
2018-11-13T12:00:03.988Z,102633.44
2018-11-13T12:02:32.939Z,102653.13
2018-11-13T12:05:01.983Z,102643.18
2018-11-13T12:07:31.008Z,102653.80
2018-11-13T12:09:59.967Z,102646.84
2018-11-13T12:12:28.981Z,102648.11
2018-11-13T12:14:59.137Z,102639.69
2018-11-13T12:17:28.065Z,102648.19
2018-11-13T12:19:57.055Z,102641.73
2018-11-13T12:22:26.015Z,102645.30
2018-11-13T12:24:55.197Z,102643.36
2018-11-13T12:27:24.243Z,102644.17
2018-11-13T12:29:53.435Z,102638.12
2018-11-13T12:32:22.303Z,102618.77
2018-11-13T12:34:51.203Z,102641.76
2018-11-13T12:37:21.612Z,102633.11
2018-11-13T12:39:50.552Z,102637.69
2018-11-13T12:42:19.606Z,102640.08
2018-11-13T12:44:49.803Z,102633.11
2018-11-13T12:47:18.852Z,102613.76
2018-11-13T12:49:47.876Z,102627.80
2018-11-13T12:52:17.933Z,102631.59
2018-11-13T12:54:48.983Z,102632.44
2018-11-13T12:57:17.919Z,102640.69
2018-11-13T12:59:48.358Z,102628.72
2018-11-13T13:02:17.424Z,102635.09
2018-11-13T13:04:46.433Z,102625.80
2018-11-13T13:07:15.467Z,102637.12
2018-11-13T13:09:44.560Z,102627.09
2018-11-13T13:12:13.562Z,102628.12
2018-11-13T13:14:42.600Z,102624.60
2018-11-13T13:17:12.721Z,102638.77
2018-11-13T13:19:41.824Z,102626.29
2018-11-13T13:22:11.700Z,102626.94
2018-11-13T13:24:40.667Z,102618.70
2018-11-13T13:27:09.675Z,102603.29
2018-11-13T13:29:38.575Z,102626.59
2018-11-13T13:32:07.599Z,102639.02
2018-11-13T13:34:36.613Z,102638.41
2018-11-13T13:37:05.748Z,102633.34
2018-11-13T13:39:34.780Z,102645.89
2018-11-13T13:42:04.113Z,102632.75
2018-11-13T13:44:33.146Z,102621.20
2018-11-13T13:47:02.316Z,102615.53
2018-11-13T13:49:31.364Z,102626.27
2018-11-13T13:52:00.245Z,102602.83
2018-11-13T13:54:29.256Z,102617.64
2018-11-13T13:56:58.368Z,102618.42
2018-11-13T13:59:27.459Z,102603.14
2018-11-13T14:01:56.429Z,102620.52
2018-11-13T14:04:25.481Z,102611.58
2018-11-13T14:06:54.419Z,102608.33
2018-11-13T14:09:23.519Z,102599.34
2018-11-13T14:11:52.491Z,102611.78
2018-11-13T14:14:21.400Z,102601.73
2018-11-13T14:16:50.381Z,102610.06
2018-11-13T14:19:19.359Z,102599.13
2018-11-13T14:21:48.296Z,102605.55
2018-11-13T14:24:17.335Z,102601.17
2018-11-13T14:26:46.300Z,102599.59
2018-11-13T14:29:15.270Z,102593.20
2018-11-13T14:31:44.182Z,102597.86
2018-11-13T14:34:14.390Z,102588.81
2018-11-13T14:36:43.399Z,102589.16
2018-11-13T14:39:12.735Z,102593.37
2018-11-13T14:41:41.808Z,102601.44
2018-11-13T14:44:10.791Z,102618.42
2018-11-13T14:46:39.893Z,102609.81
2018-11-13T14:49:09.282Z,102615.29
2018-11-13T14:51:38.270Z,102613.88
2018-11-13T14:54:07.212Z,102612.25
2018-11-13T14:56:36.265Z,102609.59
2018-11-13T14:59:05.391Z,102616.09
2018-11-13T15:01:34.434Z,102620.83
2018-11-13T15:04:03.488Z,102615.61
2018-11-13T15:06:32.484Z,102625.25
2018-11-13T15:09:01.468Z,102623.42
2018-11-13T15:11:30.810Z,102622.51
2018-11-13T15:13:59.815Z,102624.56
2018-11-13T15:16:28.860Z,102631.20
2018-11-13T15:18:57.776Z,102632.28
2018-11-13T15:21:26.793Z,102624.03
2018-11-13T15:23:55.747Z,102628.05
2018-11-13T15:26:25.133Z,102626.63
2018-11-13T15:28:54.191Z,102619.59
2018-11-13T15:31:23.169Z,102612.76
2018-11-13T15:33:52.181Z,102620.70
2018-11-13T15:36:21.205Z,102618.96
2018-11-13T15:38:50.137Z,102614.59
2018-11-13T15:41:19.067Z,102608.55
2018-11-13T15:43:48.008Z,102607.88
2018-11-13T15:46:16.940Z,102613.23
2018-11-13T15:48:45.935Z,102607.70
2018-11-13T15:51:14.973Z,102614.47
2018-11-13T15:53:45.136Z,102611.62
2018-11-13T15:56:14.180Z,102607.16
2018-11-13T15:58:43.146Z,102628.05
2018-11-13T16:01:12.144Z,102622.28
2018-11-13T16:03:41.150Z,102627.83
2018-11-13T16:06:10.176Z,102631.66
2018-11-13T16:08:40.323Z,102632.58
2018-11-13T16:11:09.153Z,102627.89
2018-11-13T16:13:39.711Z,102636.43
2018-11-13T16:16:08.706Z,102632.35
2018-11-13T16:18:37.691Z,102636.75
2018-11-13T16:21:07.054Z,102621.21
2018-11-13T16:23:35.948Z,102629.47
2018-11-13T16:26:05.072Z,102631.30
2018-11-13T16:28:35.287Z,102630.01
2018-11-13T16:31:04.302Z,102628.77
2018-11-13T16:33:33.331Z,102633.30
2018-11-13T16:36:03.645Z,102628.59
2018-11-13T16:38:32.645Z,102626.66
2018-11-13T16:41:01.763Z,102627.25
2018-11-13T16:43:32.123Z,102633.55
2018-11-13T16:46:01.182Z,102625.08
2018-11-13T16:48:30.154Z,102622.83
2018-11-13T16:51:00.436Z,102625.61
2018-11-13T16:53:29.487Z,102621.75
2018-11-13T16:56:04.244Z,102617.92
2018-11-13T16:58:33.277Z,102621.75
2018-11-13T17:01:02.491Z,102618.05
2018-11-13T17:03:31.452Z,102627.45
2018-11-13T17:06:00.496Z,102621.88
2018-11-13T17:08:29.406Z,102621.12
2018-11-13T17:10:59.779Z,102620.14
2018-11-13T17:13:28.760Z,102623.68
2018-11-13T17:15:57.779Z,102625.96
2018-11-13T17:18:27.223Z,102624.79
2018-11-13T17:20:55.796Z,102621.31
2018-11-13T17:23:24.804Z,102624.25
2018-11-13T17:25:55.206Z,102622.95
2018-11-13T17:28:24.193Z,102621.53
2018-11-13T17:30:53.122Z,102618.02
2018-11-13T17:33:22.164Z,102612.33
2018-11-13T17:35:51.165Z,102609.34
2018-11-13T17:38:20.194Z,102611.81
2018-11-13T17:40:49.194Z,102616.47
2018-11-13T17:43:20.633Z,102611.06
2018-11-13T17:45:50.403Z,102608.02
2018-11-13T17:48:19.432Z,102610.17
2018-11-13T17:50:48.407Z,102608.02
2018-11-13T17:53:17.492Z,102607.13
2018-11-13T17:55:46.460Z,102610.70
2018-11-13T17:58:15.988Z,102598.40
2018-11-13T18:00:48.150Z,102601.69
2018-11-13T18:03:17.940Z,102602.86
2018-11-13T18:05:47.942Z,102595.52
2018-11-13T18:08:16.929Z,102597.23
2018-11-13T18:10:47.017Z,102601.02
2018-11-13T18:13:16.229Z,102590.87
2018-11-13T18:15:45.284Z,102600.58
2018-11-13T18:18:14.323Z,102591.19
2018-11-13T18:20:43.337Z,102602.73
2018-11-13T18:23:12.409Z,102598.17
2018-11-13T18:25:41.504Z,102598.14
2018-11-13T18:28:10.510Z,102599.88
2018-11-13T18:30:39.933Z,102597.44
2018-11-13T18:33:09.298Z,102590.86
2018-11-13T18:35:39.458Z,102597.79
2018-11-13T18:38:10.106Z,102591.31
2018-11-13T18:40:39.167Z,102595.38
2018-11-13T18:43:08.539Z,102597.16
2018-11-13T18:45:38.874Z,102584.31
2018-11-13T18:48:07.794Z,102587.52
2018-11-13T18:50:38.326Z,102587.17
2018-11-13T18:53:07.380Z,102586.31
2018-11-13T18:55:36.492Z,102582.77
2018-11-13T18:58:05.612Z,102578.13
2018-11-13T19:00:36.080Z,102580.77
2018-11-13T19:03:06.138Z,102579.79
2018-11-13T19:05:35.107Z,102579.57
2018-11-13T19:08:04.268Z,102583.47
2018-11-13T19:10:37.599Z,102576.59
2018-11-13T19:13:08.626Z,102571.47
2018-11-13T19:15:39.050Z,102569.77
2018-11-13T19:18:08.740Z,102566.64
2018-11-13T19:20:38.951Z,102562.97
2018-11-13T19:23:08.103Z,102561.16
2018-11-13T19:25:37.652Z,102560.49
2018-11-13T19:28:08.279Z,102556.07
2018-11-13T19:30:37.222Z,102561.00
2018-11-13T19:33:06.353Z,102558.63
2018-11-13T19:35:35.608Z,102545.53
2018-11-13T19:38:04.395Z,102543.00
2018-11-13T19:40:34.381Z,102548.29
2018-11-13T19:43:04.730Z,102553.47
2018-11-13T19:45:34.879Z,102547.34
2018-11-13T19:48:03.868Z,102547.56
2018-11-13T19:50:35.667Z,102547.31
2018-11-13T19:53:04.884Z,102538.67
2018-11-13T19:55:34.343Z,102539.40
2018-11-13T19:58:03.526Z,102540.03
2018-11-13T20:00:34.948Z,102538.11
2018-11-13T20:03:06.745Z,102538.80
2018-11-13T20:05:35.928Z,102535.86
2018-11-13T20:08:05.163Z,102536.61
2018-11-13T20:10:36.612Z,102546.23
2018-11-13T20:13:08.648Z,102531.55
2018-11-13T20:15:39.443Z,102528.95
2018-11-13T20:18:08.478Z,102527.81
2018-11-13T20:20:37.631Z,102525.76
2018-11-13T20:23:09.444Z,102516.16
2018-11-13T20:25:38.431Z,102525.09
2018-11-13T20:28:07.406Z,102513.68
2018-11-13T20:30:37.727Z,102514.95
2018-11-13T20:33:06.920Z,102510.65
2018-11-13T20:35:35.928Z,102506.73
2018-11-13T20:38:05.156Z,102501.34
2018-11-13T20:40:35.254Z,102509.98
2018-11-13T20:43:05.997Z,102506.52
2018-11-13T20:45:35.079Z,102505.67
2018-11-13T20:48:04.143Z,102508.98
2018-11-13T20:50:34.037Z,102496.70
2018-11-13T20:53:03.127Z,102495.92
2018-11-13T20:55:32.172Z,102496.14
2018-11-13T20:58:01.323Z,102491.19
2018-11-13T21:00:32.434Z,102492.93
2018-11-13T21:03:01.331Z,102492.34
2018-11-13T21:05:31.849Z,102482.20
2018-11-13T21:08:00.738Z,102495.03
2018-11-13T21:10:34.404Z,102500.47
2018-11-13T21:13:03.732Z,102489.92
2018-11-13T21:15:32.713Z,102494.73
2018-11-13T21:18:02.350Z,102493.17
2018-11-13T21:20:31.217Z,102493.02
2018-11-13T21:23:00.224Z,102491.48
2018-11-13T21:25:29.214Z,102489.66
2018-11-13T21:28:00.036Z,102491.70
2018-11-13T21:30:29.049Z,102497.45
2018-11-13T21:32:58.079Z,102501.98
2018-11-13T21:35:27.042Z,102487.76
2018-11-13T21:37:57.040Z,102495.69
2018-11-13T21:40:26.935Z,102500.38
2018-11-13T21:42:56.484Z,102498.95
2018-11-13T21:45:26.624Z,102493.57
2018-11-13T21:47:55.615Z,102492.93
2018-11-13T21:50:25.839Z,102486.45
2018-11-13T21:52:54.937Z,102475.45
2018-11-13T21:55:25.077Z,102483.92
2018-11-13T21:57:54.089Z,102480.09
2018-11-13T22:00:31.458Z,102484.48
2018-11-13T22:03:01.936Z,102479.66
2018-11-13T22:05:31.613Z,102477.92
2018-11-13T22:08:00.641Z,102457.72
2018-11-13T22:10:29.678Z,102467.55
2018-11-13T22:12:58.602Z,102463.13
2018-11-13T22:15:28.626Z,102462.81
2018-11-13T22:17:57.548Z,102454.25
2018-11-13T22:20:26.603Z,102465.69
2018-11-13T22:22:56.933Z,102464.11
2018-11-13T22:25:26.947Z,102453.27
2018-11-13T22:27:57.034Z,102454.94
2018-11-13T22:30:27.435Z,102447.55
2018-11-13T22:32:56.447Z,102447.48
2018-11-13T22:35:25.398Z,102444.83
2018-11-13T22:37:54.473Z,102440.75
2018-11-13T22:40:24.728Z,102433.39
2018-11-13T22:42:53.703Z,102431.72
2018-11-13T22:45:23.936Z,102426.75
2018-11-13T22:47:53.245Z,102421.12
2018-11-13T22:50:24.365Z,102407.63
2018-11-13T22:52:53.708Z,102409.47
2018-11-13T22:55:22.757Z,102410.55
2018-11-13T22:57:53.304Z,102406.34
2018-11-13T23:00:23.172Z,102402.77
2018-11-13T23:02:53.412Z,102398.44
2018-11-13T23:05:22.426Z,102397.23
2018-11-13T23:07:51.412Z,102398.44
2018-11-13T23:10:20.523Z,102394.36
2018-11-13T23:12:49.498Z,102372.73
2018-11-13T23:15:19.883Z,102376.28
2018-11-13T23:17:49.006Z,102376.73
2018-11-13T23:20:19.267Z,102368.06
2018-11-13T23:22:48.220Z,102375.91
2018-11-13T23:25:18.387Z,102381.02
2018-11-13T23:27:48.265Z,102374.70
2018-11-13T23:30:22.267Z,102375.59
2018-11-13T23:32:51.345Z,102371.64
2018-11-13T23:35:20.510Z,102370.38
2018-11-13T23:37:50.705Z,102366.20
2018-11-13T23:40:21.125Z,102366.94
2018-11-13T23:42:50.567Z,102369.84
2018-11-13T23:45:20.549Z,102371.77
2018-11-13T23:47:49.974Z,102370.47
2018-11-13T23:50:19.051Z,102359.64
2018-11-13T23:52:49.134Z,102371.73
2018-11-13T23:55:18.487Z,102374.30
2018-11-13T23:57:48.040Z,102375.13
